Airport ICAO


17:42 UTC

12°C

Clear skies


An affordable passengers' Moving Map for your aircraft. Made for the iPad and the iPhone
More information here

LFMN Cote D'Azur


Nice FRANCE   VFR CAVOK


METAR LFMN 171730Z 32013KT 270V360 CAVOK 12/M06 Q1012 NOSIG 0h12min

TAF LFMN 171400Z 1715/1821 24015G30KT 9999 FEW050 PROB30 TEMPO 1715/1717 33020G40KT BECMG 1718/1720 34010KT CAVOK PROB30 TEMPO 1801/1804 26010KT BECMG 1807/1809 07005KT 3h42min





NOTAMS

OPEN